createdAt,value
2023-01-29T00:02:09.537Z,71.95
2023-01-29T00:04:36.436Z,72.12
2023-01-29T00:07:03.294Z,72.02
2023-01-29T00:09:31.357Z,71.95
2023-01-29T00:11:58.357Z,72.67
2023-01-29T00:14:27.296Z,72.51
2023-01-29T00:16:54.664Z,72.59
2023-01-29T00:19:21.823Z,71.91
2023-01-29T00:21:48.666Z,72.01
2023-01-29T00:24:15.499Z,72.26
2023-01-29T00:26:43.142Z,72.15
2023-01-29T00:29:10.111Z,71.79
2023-01-29T00:31:37.051Z,71.93
2023-01-29T00:34:03.998Z,71.88
2023-01-29T00:36:30.835Z,71.90
2023-01-29T00:39:00.472Z,71.81
2023-01-29T00:41:51.220Z,71.81
2023-01-29T00:44:38.944Z,72.04
2023-01-29T00:47:25.508Z,71.73
2023-01-29T00:49:52.483Z,71.92
2023-01-29T00:52:24.975Z,72.01
2023-01-29T00:54:53.714Z,71.97
2023-01-29T00:57:20.918Z,72.00
2023-01-29T00:59:47.898Z,71.86
2023-01-29T01:02:32.921Z,71.92
2023-01-29T01:05:02.381Z,71.87
2023-01-29T01:07:30.580Z,72.14
2023-01-29T01:10:16.471Z,71.54
2023-01-29T01:12:43.710Z,71.82
2023-01-29T01:15:10.970Z,71.84
2023-01-29T01:17:37.958Z,71.76
2023-01-29T01:20:05.680Z,71.05
2023-01-29T01:22:32.477Z,71.08
2023-01-29T01:24:59.343Z,71.08
2023-01-29T01:27:26.179Z,71.20
2023-01-29T01:29:53.273Z,70.67
2023-01-29T01:32:20.133Z,70.75
2023-01-29T01:34:46.945Z,70.67
2023-01-29T01:37:13.843Z,70.74
2023-01-29T01:39:40.736Z,70.93
2023-01-29T01:42:13.273Z,70.65
2023-01-29T01:45:04.550Z,70.51
2023-01-29T01:47:43.463Z,70.51
2023-01-29T01:50:42.742Z,70.68
2023-01-29T01:53:17.829Z,70.31
2023-01-29T01:55:52.548Z,70.71
2023-01-29T01:58:29.684Z,70.53
2023-01-29T02:00:56.950Z,70.66
2023-01-29T02:03:44.375Z,70.95
2023-01-29T02:06:30.029Z,69.85
2023-01-29T02:09:21.810Z,69.78
2023-01-29T02:11:48.635Z,68.89
2023-01-29T02:14:16.074Z,68.96
2023-01-29T02:16:42.886Z,68.70
2023-01-29T02:19:53.228Z,68.39
2023-01-29T02:23:03.629Z,67.51
2023-01-29T02:25:59.343Z,67.65
2023-01-29T02:28:44.166Z,67.89
2023-01-29T02:31:25.072Z,68.17
2023-01-29T02:33:56.755Z,68.11
2023-01-29T02:36:38.072Z,68.33
2023-01-29T02:39:37.967Z,68.21
2023-01-29T02:42:38.851Z,67.75
2023-01-29T02:45:11.454Z,67.77
2023-01-29T02:48:05.355Z,68.13
2023-01-29T02:50:43.655Z,68.03
2023-01-29T02:53:53.280Z,67.61
2023-01-29T02:56:37.380Z,67.43
2023-01-29T02:59:23.282Z,67.12
2023-01-29T03:02:10.508Z,66.97
2023-01-29T03:04:46.524Z,67.55
2023-01-29T03:07:42.434Z,67.37
2023-01-29T03:10:20.830Z,66.79
2023-01-29T03:12:55.953Z,66.76
2023-01-29T03:15:47.414Z,66.73
2023-01-29T03:18:27.746Z,66.81
2023-01-29T03:21:24.873Z,67.09
2023-01-29T03:24:12.627Z,67.41
2023-01-29T03:26:59.384Z,67.77
2023-01-29T03:29:45.224Z,67.84
2023-01-29T03:32:13.336Z,68.29
2023-01-29T03:34:53.060Z,68.26
2023-01-29T03:37:52.019Z,68.10
2023-01-29T03:40:19.211Z,68.13
2023-01-29T03:43:24.937Z,67.99
2023-01-29T03:46:03.467Z,68.13
2023-01-29T03:48:40.079Z,67.90
2023-01-29T03:51:36.452Z,67.59
2023-01-29T03:54:26.315Z,67.54
2023-01-29T03:57:05.177Z,67.33
2023-01-29T03:59:41.517Z,67.07
2023-01-29T04:02:27.772Z,67.66
2023-01-29T04:05:04.604Z,67.23
2023-01-29T04:07:33.447Z,67.58
2023-01-29T04:10:04.773Z,66.77
2023-01-29T04:12:50.248Z,67.08
2023-01-29T04:15:19.024Z,66.65
2023-01-29T04:17:56.443Z,67.02
2023-01-29T04:20:24.940Z,67.29
2023-01-29T04:22:52.766Z,67.43
2023-01-29T04:25:27.050Z,67.70
2023-01-29T04:28:19.588Z,68.35
2023-01-29T04:30:49.247Z,69.15
2023-01-29T04:33:21.834Z,67.75
2023-01-29T04:36:11.418Z,66.06
2023-01-29T04:39:05.508Z,66.10
2023-01-29T04:41:37.661Z,66.78
2023-01-29T04:44:18.993Z,67.36
2023-01-29T04:47:10.808Z,67.76
2023-01-29T04:49:51.222Z,67.98
2023-01-29T04:52:45.571Z,67.90
2023-01-29T04:55:40.591Z,67.86
2023-01-29T04:58:28.873Z,67.91
2023-01-29T05:00:57.209Z,68.10
2023-01-29T05:03:26.967Z,68.45
2023-01-29T05:05:55.863Z,68.44
2023-01-29T05:08:25.764Z,68.53
2023-01-29T05:10:55.674Z,68.72
2023-01-29T05:13:23.548Z,68.97
2023-01-29T05:15:59.792Z,68.88
2023-01-29T05:18:26.913Z,67.90
2023-01-29T05:20:56.856Z,67.45
2023-01-29T05:23:24.131Z,67.40
2023-01-29T05:25:52.626Z,67.79
2023-01-29T05:28:19.682Z,67.77
2023-01-29T05:30:52.093Z,66.49
2023-01-29T05:33:24.784Z,66.31
2023-01-29T05:35:52.025Z,66.12
2023-01-29T05:38:19.792Z,66.12
2023-01-29T05:40:47.288Z,66.18
2023-01-29T05:43:21.148Z,65.77
2023-01-29T05:46:01.416Z,65.82
2023-01-29T05:48:29.880Z,66.30
2023-01-29T05:51:05.061Z,66.48
2023-01-29T05:53:32.919Z,65.82
2023-01-29T05:56:04.674Z,64.86
2023-01-29T05:58:34.805Z,64.31
2023-01-29T06:01:21.198Z,64.21
2023-01-29T06:03:48.604Z,63.99
2023-01-29T06:06:16.403Z,63.31
2023-01-29T06:08:43.530Z,63.37
2023-01-29T06:11:13.359Z,63.14
2023-01-29T06:13:40.863Z,63.80
2023-01-29T06:16:09.133Z,64.08
2023-01-29T06:18:37.625Z,64.36
2023-01-29T06:21:07.219Z,63.78
2023-01-29T06:23:34.381Z,63.68
2023-01-29T06:26:07.806Z,63.94
2023-01-29T06:28:34.950Z,63.59
2023-01-29T06:31:23.833Z,63.55
2023-01-29T06:33:50.420Z,63.35
2023-01-29T06:36:17.260Z,63.59
2023-01-29T06:38:44.116Z,63.77
2023-01-29T06:41:13.291Z,63.15
2023-01-29T06:43:40.356Z,63.20
2023-01-29T06:46:08.756Z,63.20
2023-01-29T06:48:36.058Z,62.72
2023-01-29T06:51:06.351Z,62.38
2023-01-29T06:53:38.368Z,61.96
2023-01-29T06:56:06.572Z,62.04
2023-01-29T06:58:33.927Z,62.27
2023-01-29T07:01:11.714Z,63.71
2023-01-29T07:03:42.467Z,63.59
2023-01-29T07:06:10.316Z,63.53
2023-01-29T07:08:39.097Z,63.33
2023-01-29T07:11:07.946Z,63.62
2023-01-29T07:13:34.903Z,63.18
2023-01-29T07:16:03.802Z,63.01
2023-01-29T07:18:31.106Z,62.67
2023-01-29T07:20:58.371Z,63.95
2023-01-29T07:23:25.661Z,64.84
2023-01-29T07:25:52.564Z,65.15
2023-01-29T07:28:23.101Z,65.51
2023-01-29T07:30:49.983Z,65.61
2023-01-29T07:33:16.849Z,64.97
2023-01-29T07:35:43.725Z,64.77
2023-01-29T07:38:11.442Z,64.92
2023-01-29T07:40:38.629Z,64.55
2023-01-29T07:43:07.696Z,64.24
2023-01-29T07:45:37.259Z,63.70
2023-01-29T07:48:05.878Z,63.84
2023-01-29T07:50:35.062Z,63.90
2023-01-29T07:53:02.674Z,64.26
2023-01-29T07:55:30.544Z,63.88
2023-01-29T07:57:58.960Z,64.39
2023-01-29T08:00:25.995Z,64.29
2023-01-29T08:02:53.139Z,64.24
2023-01-29T08:05:20.204Z,64.21
2023-01-29T08:08:05.636Z,64.62
2023-01-29T08:10:35.151Z,64.60
2023-01-29T08:13:04.335Z,64.76
2023-01-29T08:15:31.151Z,64.34
2023-01-29T08:17:58.608Z,64.40
2023-01-29T08:20:25.884Z,63.95
2023-01-29T08:23:05.871Z,64.53
2023-01-29T08:25:33.250Z,65.04
2023-01-29T08:28:02.172Z,65.17
2023-01-29T08:30:32.504Z,65.17
2023-01-29T08:32:59.522Z,64.90
2023-01-29T08:35:26.617Z,64.28
2023-01-29T08:38:01.596Z,63.92
2023-01-29T08:40:32.118Z,64.18
2023-01-29T08:43:09.178Z,64.60
2023-01-29T08:45:40.214Z,64.54
2023-01-29T08:48:08.238Z,64.43
2023-01-29T08:50:36.505Z,64.27
2023-01-29T08:53:07.848Z,64.13
2023-01-29T08:55:40.114Z,64.26
2023-01-29T08:58:09.873Z,64.35
2023-01-29T09:00:37.326Z,64.32
2023-01-29T09:03:05.017Z,64.01
2023-01-29T09:05:32.567Z,64.32
2023-01-29T09:07:59.750Z,63.95
2023-01-29T09:10:26.828Z,62.70
2023-01-29T09:12:53.694Z,62.04
2023-01-29T09:15:20.497Z,61.78
2023-01-29T09:17:49.364Z,61.49
2023-01-29T09:20:17.240Z,61.46
2023-01-29T09:22:44.189Z,61.94
2023-01-29T09:25:11.088Z,62.56
2023-01-29T09:27:38.139Z,62.43
2023-01-29T09:30:07.133Z,61.79
2023-01-29T09:32:52.513Z,62.07
2023-01-29T09:35:20.889Z,62.13
2023-01-29T09:37:49.383Z,61.72
2023-01-29T09:40:51.701Z,60.68
2023-01-29T09:43:45.485Z,59.83
2023-01-29T09:46:23.865Z,59.00
2023-01-29T09:49:03.304Z,59.38
2023-01-29T09:51:42.185Z,59.32
2023-01-29T09:54:26.003Z,59.78
2023-01-29T09:56:57.492Z,59.68
2023-01-29T09:59:30.522Z,59.84
2023-01-29T10:02:09.394Z,60.54
2023-01-29T10:05:29.261Z,60.95
2023-01-29T10:08:11.004Z,59.95
2023-01-29T10:11:11.724Z,59.77
2023-01-29T10:14:09.362Z,60.07
2023-01-29T10:16:54.675Z,59.06
2023-01-29T10:19:52.524Z,58.46
2023-01-29T10:22:34.218Z,58.57
2023-01-29T10:25:05.848Z,58.59
2023-01-29T10:27:35.542Z,58.29
2023-01-29T10:30:34.519Z,58.10
2023-01-29T10:33:09.414Z,58.67
2023-01-29T10:35:43.248Z,59.32
2023-01-29T10:38:33.442Z,58.01
2023-01-29T10:41:25.764Z,57.40
2023-01-29T10:44:08.371Z,57.45
2023-01-29T10:46:47.214Z,57.84
2023-01-29T10:49:40.760Z,57.09
2023-01-29T10:52:55.103Z,57.15
2023-01-29T10:55:43.286Z,56.57
2023-01-29T10:58:51.627Z,56.07
2023-01-29T11:01:18.472Z,55.37
2023-01-29T11:03:45.391Z,56.03
2023-01-29T11:06:25.339Z,55.83
2023-01-29T11:09:26.261Z,55.63
2023-01-29T11:12:00.977Z,57.06
2023-01-29T11:14:42.959Z,56.89
2023-01-29T11:17:26.442Z,56.35
2023-01-29T11:19:55.723Z,55.95
2023-01-29T11:22:53.961Z,54.55
2023-01-29T11:25:32.421Z,54.22
2023-01-29T11:28:01.894Z,54.00
2023-01-29T11:30:30.620Z,56.28
2023-01-29T11:33:22.167Z,56.22
2023-01-29T11:35:49.515Z,56.39
2023-01-29T11:38:16.312Z,53.92
2023-01-29T11:40:43.997Z,55.17
2023-01-29T11:43:18.262Z,55.58
2023-01-29T11:45:46.068Z,56.70
2023-01-29T11:48:20.252Z,56.66
2023-01-29T11:51:05.605Z,55.83
2023-01-29T11:53:45.977Z,56.11
2023-01-29T11:56:32.605Z,55.59
2023-01-29T11:59:02.231Z,54.72
2023-01-29T12:01:41.403Z,54.31
2023-01-29T12:04:23.433Z,54.35
2023-01-29T12:06:53.125Z,56.21
2023-01-29T12:09:24.206Z,56.37
2023-01-29T12:11:52.640Z,56.32
2023-01-29T12:14:33.485Z,56.65
2023-01-29T12:17:12.818Z,57.14
2023-01-29T12:20:06.797Z,56.28
2023-01-29T12:23:02.203Z,56.62
2023-01-29T12:26:04.164Z,57.99
2023-01-29T12:29:03.568Z,56.68
2023-01-29T12:31:50.465Z,56.21
2023-01-29T12:34:45.626Z,56.48
2023-01-29T12:37:52.464Z,55.73
2023-01-29T12:40:21.167Z,54.89
2023-01-29T12:42:53.707Z,55.63
2023-01-29T12:45:25.199Z,56.57
2023-01-29T12:48:02.124Z,57.23
2023-01-29T12:50:33.745Z,56.97
2023-01-29T12:53:26.862Z,59.23
2023-01-29T12:56:37.139Z,57.95
2023-01-29T12:59:29.355Z,56.83
2023-01-29T13:02:05.151Z,56.17
2023-01-29T13:04:45.536Z,55.47
2023-01-29T13:07:30.266Z,56.17
2023-01-29T13:10:09.979Z,56.16
2023-01-29T13:12:39.938Z,56.81
2023-01-29T13:15:24.172Z,56.54
2023-01-29T13:18:01.998Z,57.30
2023-01-29T13:20:35.268Z,56.68
2023-01-29T13:23:21.294Z,57.64
2023-01-29T13:25:52.814Z,59.15
2023-01-29T13:28:25.730Z,58.73
2023-01-29T13:31:35.706Z,58.35
2023-01-29T13:34:23.727Z,57.43
2023-01-29T13:36:55.932Z,56.26
2023-01-29T13:39:44.186Z,57.50
2023-01-29T13:42:36.574Z,57.00
2023-01-29T13:45:07.489Z,57.55
2023-01-29T13:47:39.440Z,56.87
2023-01-29T13:50:19.164Z,57.32
2023-01-29T13:53:08.370Z,56.99
2023-01-29T13:55:39.995Z,56.66
2023-01-29T13:58:14.130Z,57.40
2023-01-29T14:00:40.833Z,57.62
2023-01-29T14:03:13.771Z,57.52
2023-01-29T14:05:54.992Z,57.85
2023-01-29T14:08:45.147Z,59.02
2023-01-29T14:11:21.626Z,58.08
2023-01-29T14:13:50.035Z,57.75
2023-01-29T14:16:16.895Z,58.09
2023-01-29T14:19:02.977Z,57.50
2023-01-29T14:21:36.162Z,57.17
2023-01-29T14:24:21.388Z,58.35
2023-01-29T14:26:54.635Z,58.53
2023-01-29T14:29:34.167Z,58.67
2023-01-29T14:32:20.798Z,58.74
2023-01-29T14:35:10.920Z,58.90
2023-01-29T14:37:41.599Z,58.96
2023-01-29T14:40:17.645Z,59.70
2023-01-29T14:43:08.644Z,59.54
2023-01-29T14:45:38.301Z,58.66
2023-01-29T14:48:11.124Z,59.95
2023-01-29T14:50:42.922Z,59.75
2023-01-29T14:53:41.323Z,59.08
2023-01-29T14:56:16.094Z,58.42
2023-01-29T14:58:48.346Z,59.31
2023-01-29T15:01:46.417Z,59.02
2023-01-29T15:04:44.628Z,59.66
2023-01-29T15:07:12.016Z,59.00
2023-01-29T15:09:47.138Z,58.26
2023-01-29T15:12:40.765Z,58.19
2023-01-29T15:15:34.733Z,58.86
2023-01-29T15:18:22.894Z,58.68
2023-01-29T15:20:50.108Z,58.93
2023-01-29T15:23:32.551Z,58.99
2023-01-29T15:26:04.518Z,59.01
2023-01-29T15:28:34.646Z,59.22
2023-01-29T15:31:05.999Z,60.04
2023-01-29T15:33:34.037Z,60.22
2023-01-29T15:36:08.052Z,59.78
2023-01-29T15:38:36.277Z,60.10
2023-01-29T15:41:20.072Z,60.36
2023-01-29T15:43:57.930Z,60.33
2023-01-29T15:46:38.788Z,60.34
2023-01-29T15:49:19.291Z,60.59
2023-01-29T15:51:47.888Z,61.15
2023-01-29T15:54:17.085Z,61.41
2023-01-29T15:56:50.799Z,61.49
2023-01-29T15:59:42.575Z,60.91
2023-01-29T16:02:25.852Z,61.09
2023-01-29T16:04:53.582Z,61.04
2023-01-29T16:07:21.012Z,61.05
2023-01-29T16:09:48.796Z,60.91
2023-01-29T16:12:15.781Z,61.39
2023-01-29T16:14:43.569Z,62.10
2023-01-29T16:17:38.114Z,62.30
2023-01-29T16:20:27.280Z,61.89
2023-01-29T16:22:54.189Z,62.07
2023-01-29T16:25:21.202Z,61.95
2023-01-29T16:27:48.981Z,61.88
2023-01-29T16:30:19.206Z,62.04
2023-01-29T16:32:46.431Z,61.66
2023-01-29T16:35:17.418Z,61.97
2023-01-29T16:37:50.684Z,62.59
2023-01-29T16:40:38.094Z,61.66
2023-01-29T16:43:43.666Z,62.28
2023-01-29T16:46:32.964Z,62.69
2023-01-29T16:49:00.618Z,62.61
2023-01-29T16:51:38.260Z,62.11
2023-01-29T16:54:18.305Z,62.44
2023-01-29T16:56:51.991Z,62.97
2023-01-29T16:59:32.592Z,62.47
2023-01-29T17:01:59.802Z,62.05
2023-01-29T17:04:27.793Z,63.37
2023-01-29T17:06:57.918Z,62.80
2023-01-29T17:09:33.934Z,62.75
2023-01-29T17:12:07.492Z,61.99
2023-01-29T17:14:37.940Z,61.40
2023-01-29T17:17:15.756Z,61.28
2023-01-29T17:19:42.604Z,61.33
2023-01-29T17:22:14.728Z,61.80
2023-01-29T17:24:42.559Z,62.36
2023-01-29T17:27:21.071Z,62.45
2023-01-29T17:29:51.141Z,62.36
2023-01-29T17:32:18.856Z,62.21
2023-01-29T17:34:46.919Z,63.21
2023-01-29T17:37:15.728Z,62.89
2023-01-29T17:39:50.355Z,62.72
2023-01-29T17:42:17.610Z,62.54
2023-01-29T17:44:45.278Z,62.42
2023-01-29T17:47:15.120Z,63.05
2023-01-29T17:49:42.743Z,63.58
2023-01-29T17:52:10.041Z,63.66
2023-01-29T17:54:37.037Z,63.05
2023-01-29T17:57:04.032Z,63.66
2023-01-29T17:59:34.472Z,63.41
2023-01-29T18:02:01.376Z,62.98
2023-01-29T18:04:28.276Z,63.17
2023-01-29T18:06:57.009Z,63.33
2023-01-29T18:09:24.619Z,62.95
2023-01-29T18:11:52.993Z,63.57
2023-01-29T18:14:20.275Z,63.66
2023-01-29T18:16:47.293Z,64.10
2023-01-29T18:19:14.170Z,64.63
2023-01-29T18:21:41.272Z,64.01
2023-01-29T18:24:08.309Z,64.30
2023-01-29T18:26:35.971Z,64.98
2023-01-29T18:29:03.875Z,64.58
2023-01-29T18:31:31.116Z,64.44
2023-01-29T18:33:58.056Z,64.53
2023-01-29T18:36:24.999Z,64.83
2023-01-29T18:38:51.882Z,64.09
2023-01-29T18:41:18.760Z,64.91
2023-01-29T18:43:52.774Z,65.18
2023-01-29T18:46:20.193Z,64.36
2023-01-29T18:48:47.066Z,64.37
2023-01-29T18:51:13.970Z,64.48
2023-01-29T18:53:40.838Z,65.50
2023-01-29T18:56:08.147Z,64.51
2023-01-29T18:58:36.366Z,65.32
2023-01-29T19:01:11.790Z,65.49
2023-01-29T19:03:40.578Z,65.50
2023-01-29T19:06:10.443Z,65.25
2023-01-29T19:08:37.821Z,65.22
2023-01-29T19:11:08.010Z,64.96
2023-01-29T19:13:37.116Z,64.72
2023-01-29T19:16:09.023Z,64.83
2023-01-29T19:18:36.267Z,64.61
2023-01-29T19:21:10.382Z,65.29
2023-01-29T19:23:37.849Z,65.23
2023-01-29T19:26:05.146Z,65.18
2023-01-29T19:28:32.609Z,65.72
2023-01-29T19:31:00.657Z,65.82
2023-01-29T19:33:28.765Z,65.85
2023-01-29T19:35:59.854Z,65.96
2023-01-29T19:38:27.605Z,65.55
2023-01-29T19:40:55.262Z,65.54
2023-01-29T19:43:22.152Z,65.41
2023-01-29T19:45:51.036Z,66.57
2023-01-29T19:48:21.752Z,66.82
2023-01-29T19:50:58.169Z,67.02
2023-01-29T19:53:25.352Z,66.98
2023-01-29T19:56:08.866Z,66.00
2023-01-29T19:58:36.351Z,66.48
2023-01-29T20:01:20.662Z,66.06
2023-01-29T20:03:49.858Z,66.12
2023-01-29T20:06:19.973Z,66.31
2023-01-29T20:08:46.939Z,66.44
2023-01-29T20:11:20.674Z,66.59
2023-01-29T20:13:50.479Z,65.87
2023-01-29T20:16:19.297Z,66.17
2023-01-29T20:18:46.647Z,65.99
2023-01-29T20:21:16.655Z,66.19
2023-01-29T20:23:45.888Z,66.33
2023-01-29T20:26:16.061Z,66.26
2023-01-29T20:28:43.234Z,66.24
2023-01-29T20:31:10.291Z,66.39
2023-01-29T20:33:39.534Z,66.70
2023-01-29T20:36:09.883Z,66.17
2023-01-29T20:38:38.357Z,66.10
2023-01-29T20:41:14.652Z,66.33
2023-01-29T20:43:42.540Z,66.02
2023-01-29T20:46:10.271Z,66.67
2023-01-29T20:48:37.651Z,65.65
2023-01-29T20:51:07.795Z,67.06
2023-01-29T20:53:34.790Z,66.36
2023-01-29T20:56:04.216Z,66.04
2023-01-29T20:58:31.602Z,66.20
2023-01-29T21:00:58.422Z,66.33
2023-01-29T21:03:25.297Z,66.67
2023-01-29T21:05:52.330Z,66.81
2023-01-29T21:08:19.186Z,66.55
2023-01-29T21:10:49.242Z,66.16
2023-01-29T21:13:16.086Z,66.65
2023-01-29T21:15:42.990Z,66.59
2023-01-29T21:18:10.343Z,66.75
2023-01-29T21:20:37.583Z,66.73
2023-01-29T21:23:06.910Z,65.96
2023-01-29T21:25:34.119Z,66.32
2023-01-29T21:28:02.818Z,69.55
2023-01-29T21:30:30.016Z,67.53
2023-01-29T21:32:56.870Z,67.02
2023-01-29T21:35:23.745Z,66.75
2023-01-29T21:37:50.687Z,66.95
2023-01-29T21:40:18.180Z,66.75
2023-01-29T21:43:03.763Z,66.57
2023-01-29T21:45:30.581Z,67.72
2023-01-29T21:47:58.409Z,66.94
2023-01-29T21:50:25.246Z,66.74
2023-01-29T21:52:52.129Z,67.16
2023-01-29T21:55:19.004Z,67.06
2023-01-29T21:57:46.929Z,68.37
2023-01-29T22:00:14.804Z,67.96
2023-01-29T22:02:42.051Z,67.45
2023-01-29T22:05:18.730Z,67.83
2023-01-29T22:07:47.802Z,67.75
2023-01-29T22:10:17.104Z,67.37
2023-01-29T22:12:44.767Z,67.90
2023-01-29T22:15:12.848Z,67.71
2023-01-29T22:17:41.407Z,68.23
2023-01-29T22:20:11.762Z,68.98
2023-01-29T22:22:38.667Z,68.83
2023-01-29T22:25:05.969Z,68.81
2023-01-29T22:27:33.985Z,69.50
2023-01-29T22:30:00.877Z,69.60
2023-01-29T22:32:28.047Z,69.19
2023-01-29T22:34:54.923Z,69.09
2023-01-29T22:37:21.789Z,68.77
2023-01-29T22:39:48.653Z,68.52
2023-01-29T22:42:15.465Z,68.15
2023-01-29T22:44:42.692Z,68.33
2023-01-29T22:47:09.621Z,68.11
2023-01-29T22:49:36.441Z,68.26
2023-01-29T22:52:12.566Z,68.35
2023-01-29T22:54:42.093Z,68.72
2023-01-29T22:57:11.973Z,68.70
2023-01-29T22:59:38.994Z,68.92
2023-01-29T23:02:07.896Z,69.25
2023-01-29T23:04:35.108Z,68.87
2023-01-29T23:07:02.014Z,69.29
2023-01-29T23:09:29.021Z,70.47
2023-01-29T23:11:55.867Z,70.02
2023-01-29T23:14:22.718Z,70.22
2023-01-29T23:16:49.521Z,69.47
2023-01-29T23:19:16.413Z,69.61
2023-01-29T23:21:43.466Z,70.00
2023-01-29T23:24:10.933Z,69.93
2023-01-29T23:26:56.164Z,70.13
2023-01-29T23:29:23.117Z,69.36
2023-01-29T23:31:50.040Z,69.31
2023-01-29T23:34:17.203Z,69.84
2023-01-29T23:36:44.082Z,70.24
2023-01-29T23:39:11.263Z,69.81
2023-01-29T23:41:38.183Z,70.24
2023-01-29T23:44:05.336Z,70.20
2023-01-29T23:46:32.901Z,69.93
2023-01-29T23:48:59.988Z,70.42
2023-01-29T23:51:27.004Z,70.58
2023-01-29T23:53:54.089Z,69.85
2023-01-29T23:56:20.935Z,71.00
2023-01-29T23:58:47.780Z,70.86
